»·PEaware :: AAL115 KPSP-KLAX

AAL115 :: KPSP-KLAX

FLIGHT INFORMATION

Flight Status: Arrived
Operator:
American Airlines
More flights by this operator :: More flights under this callsign
Pilot: Sergei F. (8485)
Aircraft: BOEING 757-200
(B752)
More flights by this aircraft type
Origin: KPSP Palm Springs Intl
United States
Destination: KLAX Los Angeles Intl
United States
More flights between these airports :: More routes between these airports
Route: +CATH1 PSP V388 PDZ LENHO SEAVU SEAVU2
File this flight plan on PilotEdge
Remarks:
Altitude:
(Current/Filed)
10,000ft
Speed:
(Current/Filed)
300kts
Departed: 30-Dec-17 09:58 PM
Arrived: 30-Dec-17 10:31 PM
Distance/Time
Traveled:
95nm/0:32
Distance/Time
To Go:
Arrived

Flight Plot

Page will automatically refresh every two minutes.

Flight plan parsing failed; only flown route is shown


Map Options




Map Legend


Flown Route
Filed Route
Departure Airport
Arrival Airport
Navaid (VOR, NDB)
Fix

Horizontal Profiles

Position Reports

Time Latitude Longitude Heading Altitude Ground
Speed
30-Dec-17 21:36 33.823752 -116.506137 225 419ft 0kts
30-Dec-17 21:37 33.823752 -116.506137 225 419ft 0kts
30-Dec-17 21:38 33.823752 -116.506137 225 419ft 0kts
30-Dec-17 21:39 33.823752 -116.506137 225 419ft 0kts
30-Dec-17 21:40 33.823752 -116.506137 225 419ft 0kts
30-Dec-17 21:41 33.823752 -116.506137 225 419ft 0kts
30-Dec-17 21:42 33.823752 -116.506137 225 419ft 0kts
30-Dec-17 21:43 33.823752 -116.506137 225 419ft 0kts
30-Dec-17 21:44 33.823752 -116.506137 225 419ft 0kts
30-Dec-17 21:45 33.823752 -116.506137 225 419ft 0kts
30-Dec-17 21:46 33.823752 -116.506137 225 419ft 0kts
30-Dec-17 21:47 33.823752 -116.506137 225 419ft 0kts
30-Dec-17 21:48 33.823752 -116.506137 225 419ft 0kts
30-Dec-17 21:49 33.823752 -116.506137 225 419ft 0kts
30-Dec-17 21:50 33.823752 -116.506137 225 419ft 0kts
30-Dec-17 21:51 33.823751 -116.506137 225 419ft 0kts
30-Dec-17 21:52 33.823751 -116.506137 225 419ft 0kts
30-Dec-17 21:53 33.823857 -116.506005 226 419ft 1kts
30-Dec-17 21:54 33.824413 -116.505913 153 420ft 2kts
30-Dec-17 21:55 33.824544 -116.506020 142 421ft 0kts
30-Dec-17 21:56 33.824544 -116.506020 142 421ft 0kts
30-Dec-17 21:57 33.824544 -116.506020 142 421ft 0kts
30-Dec-17 21:58 33.824244 -116.505749 143 420ft 1kts
30-Dec-17 21:59 33.823147 -116.504758 129 417ft 4kts
30-Dec-17 22:00 33.822898 -116.503696 128 415ft 5kts
30-Dec-17 22:01 33.820620 -116.501626 143 410ft 12kts
30-Dec-17 22:02 33.818766 -116.500001 140 405ft 6kts
30-Dec-17 22:03 33.818917 -116.498191 7 402ft 3kts
30-Dec-17 22:04 33.820131 -116.499154 323 404ft 50kts
30-Dec-17 22:05 33.844241 -116.521060 320 1689ft 143kts
30-Dec-17 22:06 33.880423 -116.555930 321 3114ft 185kts
30-Dec-17 22:07 33.916703 -116.534925 112 5628ft 199kts
30-Dec-17 22:08 33.894373 -116.483010 117 7380ft 217kts
30-Dec-17 22:09 33.866105 -116.417812 116 9687ft 225kts
30-Dec-17 22:10 33.855147 -116.348097 47 11798ft 231kts
30-Dec-17 22:11 33.904586 -116.374206 272 12012ft 223kts
30-Dec-17 22:12 33.906133 -116.445975 271 12020ft 293kts
30-Dec-17 22:13 33.908685 -116.560068 271 12010ft 367kts
30-Dec-17 22:14 33.931268 -116.680045 288 12022ft 397kts
30-Dec-17 22:15 33.945838 -116.811108 267 12412ft 399kts
30-Dec-17 22:16 33.941658 -116.943976 267 12805ft 402kts
30-Dec-17 22:17 33.937868 -117.076193 268 11730ft 374kts
30-Dec-17 22:18 33.932178 -117.193041 266 11655ft 328kts
30-Dec-17 22:19 33.927857 -117.296853 267 12047ft 291kts
30-Dec-17 22:20 33.938536 -117.390955 291 12037ft 290kts
30-Dec-17 22:21 33.968746 -117.477952 292 12037ft 278kts
30-Dec-17 22:22 33.986619 -117.566605 284 11047ft 269kts
30-Dec-17 22:23 34.005467 -117.651743 284 9999ft 260kts
30-Dec-17 22:24 34.001647 -117.730961 263 9583ft 226kts
30-Dec-17 22:25 33.994822 -117.803662 264 8330ft 211kts
30-Dec-17 22:26 33.988278 -117.872233 264 6837ft 203kts
30-Dec-17 22:27 33.982043 -117.936693 264 6058ft 182kts
30-Dec-17 22:28 33.976638 -117.992017 264 5354ft 161kts
30-Dec-17 22:29 33.971490 -118.044365 264 5072ft 160kts
30-Dec-17 22:30 33.966297 -118.096672 263 4654ft 151kts
30-Dec-17 22:31 33.961374 -118.146081 263 3763ft 148kts
30-Dec-17 22:32 33.956609 -118.193628 263 2861ft 143kts
30-Dec-17 22:33 33.952042 -118.239025 263 1988ft 140kts
30-Dec-17 22:34 33.947681 -118.282052 263 1765ft 146kts
30-Dec-17 22:35 33.943225 -118.326674 263 1061ft 136kts
30-Dec-17 22:36 33.938520 -118.372367 263 352ft 140kts
30-Dec-17 22:37 33.935460 -118.404703 283 126ft 30kts
30-Dec-17 22:38 33.935850 -118.406115 287 129ft 1kts
30-Dec-17 22:39 33.935931 -118.407828 273 130ft 7kts
30-Dec-17 22:40 33.937528 -118.409072 354 130ft 8kts
30-Dec-17 22:41 33.939001 -118.407937 20 130ft 7kts
30-Dec-17 22:42 33.941094 -118.407893 73 127ft 9kts
30-Dec-17 22:43 33.941142 -118.407494 84 126ft 0kts
30-Dec-17 22:44 33.941142 -118.407494 84 126ft 0kts
30-Dec-17 22:45 33.941142 -118.407494 84 126ft 0kts
30-Dec-17 22:46 33.941142 -118.407494 84 126ft 0kts
30-Dec-17 22:47 33.941142 -118.407494 84 126ft 0kts
30-Dec-17 22:48 33.941142 -118.407494 84 126ft 0kts
30-Dec-17 22:49 33.941142 -118.407494 84 126ft 0kts
30-Dec-17 22:50 33.941142 -118.407494 84 126ft 0kts

Navigation Log

Ident Type
Flight plan parsing failed, navigation log unavailable